createdAt,value
2023-03-15T00:00:57.085Z,99596.26
2023-03-15T00:02:02.299Z,99597.19
2023-03-15T00:03:07.849Z,99595.08
2023-03-15T00:04:13.028Z,99589.73
2023-03-15T00:05:17.196Z,99594.64
2023-03-15T00:06:20.665Z,99588.36
2023-03-15T00:07:26.608Z,99588.96
2023-03-15T00:08:31.527Z,99590.30
2023-03-15T00:09:34.954Z,99588.61
2023-03-15T00:10:45.458Z,99588.69
2023-03-15T00:11:49.796Z,99585.97
2023-03-15T00:12:53.160Z,99584.03
2023-03-15T00:13:56.406Z,99582.94
2023-03-15T00:14:59.690Z,99575.20
2023-03-15T00:16:05.233Z,99575.72
2023-03-15T00:17:09.165Z,99574.02
2023-03-15T00:18:16.351Z,99568.84
2023-03-15T00:19:19.481Z,99567.73
2023-03-15T00:20:21.745Z,99565.60
2023-03-15T00:21:23.940Z,99568.07
2023-03-15T00:22:27.659Z,99562.28
2023-03-15T00:23:33.916Z,99559.25
2023-03-15T00:24:38.135Z,99550.99
2023-03-15T00:25:43.465Z,99558.72
2023-03-15T00:26:45.953Z,99557.79
2023-03-15T00:27:49.574Z,99562.12
2023-03-15T00:28:56.202Z,99558.48
2023-03-15T00:29:59.409Z,99566.45
2023-03-15T00:31:08.091Z,99557.63
2023-03-15T00:32:12.264Z,99568.92
2023-03-15T00:33:16.708Z,99558.31
2023-03-15T00:34:22.142Z,99554.97
2023-03-15T00:35:25.498Z,99555.53
2023-03-15T00:36:29.311Z,99561.65
2023-03-15T00:37:33.234Z,99561.31
2023-03-15T00:38:38.543Z,99562.75
2023-03-15T00:39:43.999Z,99551.45
2023-03-15T00:40:48.051Z,99554.77
2023-03-15T00:41:51.633Z,99553.16
2023-03-15T00:42:54.614Z,99549.84
2023-03-15T00:43:57.888Z,99553.97
2023-03-15T00:45:03.090Z,99544.63
2023-03-15T00:46:06.024Z,99550.06
2023-03-15T00:47:10.679Z,99550.58
2023-03-15T00:48:14.552Z,99552.11
2023-03-15T00:49:18.049Z,99549.48
2023-03-15T00:50:22.491Z,99546.77
2023-03-15T00:51:25.803Z,99546.48
2023-03-15T00:52:31.759Z,99538.88
2023-03-15T00:53:37.403Z,99546.39
2023-03-15T00:54:41.738Z,99536.37
2023-03-15T00:55:44.623Z,99534.59
2023-03-15T00:56:49.617Z,99535.20
2023-03-15T00:57:52.976Z,99534.94
2023-03-15T00:58:57.957Z,99536.45
2023-03-15T01:00:03.030Z,99532.73
2023-03-15T01:01:09.431Z,99545.97
2023-03-15T01:02:15.786Z,99541.64
2023-03-15T01:03:19.601Z,99541.55
2023-03-15T01:04:22.051Z,99541.88
2023-03-15T01:05:29.564Z,99534.56
2023-03-15T01:06:32.854Z,99545.70
2023-03-15T01:07:36.646Z,99542.80
2023-03-15T01:08:42.874Z,99547.20
2023-03-15T01:09:49.293Z,99543.49
2023-03-15T01:10:52.910Z,99545.27
2023-03-15T01:11:56.622Z,99543.17
2023-03-15T01:13:00.231Z,99542.56
2023-03-15T01:14:06.792Z,99543.34
2023-03-15T01:15:13.501Z,99531.97
2023-03-15T01:16:19.704Z,99539.32
2023-03-15T01:17:24.366Z,99535.26
2023-03-15T01:18:31.635Z,99544.31
2023-03-15T01:19:33.932Z,99542.88
2023-03-15T01:20:37.087Z,99545.59
2023-03-15T01:21:41.528Z,99544.16
2023-03-15T01:22:45.448Z,99541.29
2023-03-15T01:23:50.222Z,99547.98
2023-03-15T01:24:56.354Z,99541.88
2023-03-15T01:26:07.497Z,99551.46
2023-03-15T01:27:11.998Z,99547.12
2023-03-15T01:28:16.134Z,99554.13
2023-03-15T01:29:19.756Z,99553.27
2023-03-15T01:30:22.323Z,99557.45
2023-03-15T01:31:29.024Z,99548.64
2023-03-15T01:32:32.818Z,99550.73
2023-03-15T01:33:39.201Z,99553.97
2023-03-15T01:34:43.840Z,99556.29
2023-03-15T01:35:47.365Z,99544.00
2023-03-15T01:36:52.986Z,99560.00
2023-03-15T01:37:57.951Z,99560.85
2023-03-15T01:39:01.637Z,99560.08
2023-03-15T01:40:14.893Z,99563.17
2023-03-15T01:41:20.882Z,99555.17
2023-03-15T01:42:24.136Z,99560.70
2023-03-15T01:43:29.750Z,99563.17
2023-03-15T01:44:55.816Z,99564.33
2023-03-15T01:46:13.147Z,99567.81
2023-03-15T01:47:19.555Z,99560.31
2023-03-15T01:48:26.291Z,99554.05
2023-03-15T01:49:31.799Z,99554.28
2023-03-15T01:50:35.284Z,99558.95
2023-03-15T01:51:48.282Z,99561.58
2023-03-15T02:17:59.892Z,99573.51
2023-03-15T02:19:10.392Z,99568.78
2023-03-15T02:20:19.062Z,99568.78
2023-03-15T02:21:23.196Z,99561.83
2023-03-15T02:22:29.231Z,99563.45
2023-03-15T02:23:32.439Z,99564.30
2023-03-15T02:24:49.420Z,99569.56
2023-03-15T02:26:02.591Z,99561.16
2023-03-15T02:27:06.634Z,99554.13
2023-03-15T02:28:10.760Z,99559.60
2023-03-15T02:29:14.249Z,99558.05
2023-03-15T02:30:17.975Z,99556.27
2023-03-15T02:31:23.318Z,99557.27
2023-03-15T02:32:26.774Z,99551.09
2023-03-15T02:33:34.542Z,99553.87
2023-03-15T02:34:38.370Z,99550.39
2023-03-15T02:35:41.884Z,99554.64
2023-03-15T02:36:45.481Z,99550.02
2023-03-15T02:37:49.828Z,99555.50
2023-03-15T02:38:53.325Z,99557.59
2023-03-15T02:39:57.151Z,99549.17
2023-03-15T02:41:00.021Z,99548.39
2023-03-15T02:42:03.004Z,99545.06
2023-03-15T02:43:09.408Z,99555.34
2023-03-15T02:44:22.585Z,99549.39
2023-03-15T02:45:28.388Z,99554.13
2023-03-15T02:46:33.766Z,99550.09
2023-03-15T02:47:37.168Z,99545.70
2023-03-15T02:48:42.733Z,99541.52
2023-03-15T02:49:48.120Z,99549.94
2023-03-15T02:50:51.433Z,99542.84
2023-03-15T02:51:55.118Z,99543.84
2023-03-15T02:53:00.189Z,99535.41
2023-03-15T02:54:06.509Z,99533.25
2023-03-15T02:55:09.441Z,99539.27
2023-03-15T02:56:12.379Z,99534.66
2023-03-15T02:57:19.483Z,99546.93
2023-03-15T02:58:24.833Z,99539.13
2023-03-15T02:59:28.198Z,99547.67
2023-03-15T03:00:30.910Z,99543.28
2023-03-15T03:01:37.285Z,99545.91
2023-03-15T03:02:42.843Z,99538.73
2023-03-15T03:03:50.852Z,99547.92
2023-03-15T03:04:57.115Z,99536.02
2023-03-15T03:05:59.811Z,99537.79
2023-03-15T03:07:03.538Z,99533.39
2023-03-15T03:08:07.645Z,99535.02
2023-03-15T03:09:13.033Z,99530.77
2023-03-15T03:10:18.415Z,99531.69
2023-03-15T03:11:22.661Z,99526.91
2023-03-15T03:12:25.648Z,99527.69
2023-03-15T03:13:29.255Z,99528.67
2023-03-15T03:14:37.278Z,99527.58
2023-03-15T03:15:41.281Z,99526.66
2023-03-15T03:16:44.913Z,99526.66
2023-03-15T03:17:49.133Z,99519.46
2023-03-15T03:18:54.340Z,99513.47
2023-03-15T03:19:58.457Z,99523.04
2023-03-15T03:21:05.275Z,99529.14
2023-03-15T03:22:08.768Z,99524.31
2023-03-15T03:23:14.676Z,99523.53
2023-03-15T03:24:20.810Z,99517.89
2023-03-15T03:25:25.041Z,99526.23
2023-03-15T03:26:32.378Z,99521.69
2023-03-15T03:27:37.386Z,99527.01
2023-03-15T03:28:41.392Z,99515.73
2023-03-15T03:29:43.757Z,99520.13
2023-03-15T03:30:47.722Z,99520.98
2023-03-15T03:31:51.065Z,99523.53
2023-03-15T03:32:58.526Z,99526.23
2023-03-15T03:34:02.266Z,99528.07
2023-03-15T03:35:09.303Z,99528.92
2023-03-15T03:36:16.288Z,99534.09
2023-03-15T03:37:19.483Z,99533.17
2023-03-15T03:38:32.404Z,99535.80
2023-03-15T03:39:37.014Z,99526.16
2023-03-15T03:40:40.347Z,99529.49
2023-03-15T03:41:45.183Z,99530.20
2023-03-15T03:42:47.960Z,99532.05
2023-03-15T03:43:53.504Z,99532.25
2023-03-15T03:44:58.732Z,99528.85
2023-03-15T03:46:04.399Z,99524.38
2023-03-15T03:47:08.568Z,99527.79
2023-03-15T03:49:15.975Z,99526.09
2023-03-15T03:50:19.493Z,99526.23
2023-03-15T03:51:23.935Z,99521.30
2023-03-15T03:52:27.571Z,99520.30
2023-03-15T03:53:31.882Z,99517.75
2023-03-15T03:54:36.422Z,99509.17
2023-03-15T03:55:38.882Z,99515.27
2023-03-15T03:56:42.815Z,99514.28
2023-03-15T03:57:46.448Z,99516.77
2023-03-15T03:58:50.664Z,99513.36
2023-03-15T03:59:56.049Z,99514.20
2023-03-15T04:01:00.170Z,99515.13
2023-03-15T04:02:04.001Z,99510.48
2023-03-15T04:03:08.748Z,99515.80
2023-03-15T04:04:17.620Z,99521.77
2023-03-15T04:05:22.359Z,99519.20
2023-03-15T04:06:25.471Z,99528.64
2023-03-15T04:07:29.676Z,99531.13
2023-03-15T04:08:33.057Z,99526.80
2023-03-15T04:09:37.581Z,99532.83
2023-03-15T04:10:42.722Z,99535.02
2023-03-15T04:11:45.672Z,99538.21
2023-03-15T04:12:51.045Z,99537.10
2023-03-15T04:13:57.370Z,99541.50
2023-03-15T04:15:00.782Z,99542.82
2023-03-15T04:16:07.674Z,99535.59
2023-03-15T04:17:14.067Z,99538.14
2023-03-15T04:18:20.683Z,99538.42
2023-03-15T04:19:24.192Z,99538.50
2023-03-15T04:20:28.855Z,99534.28
2023-03-15T04:21:32.674Z,99532.78
2023-03-15T04:22:39.551Z,99538.88
2023-03-15T04:23:44.582Z,99536.72
2023-03-15T04:24:51.245Z,99537.22
2023-03-15T04:26:11.297Z,99537.93
2023-03-15T04:27:22.255Z,99544.78
2023-03-15T04:28:37.372Z,99537.83
2023-03-15T04:29:45.452Z,99535.13
2023-03-15T04:31:07.859Z,99539.53
2023-03-15T04:32:19.111Z,99540.66
2023-03-15T04:33:26.692Z,99535.52
2023-03-15T04:34:33.921Z,99539.20
2023-03-15T04:35:43.114Z,99540.05
2023-03-15T04:36:54.653Z,99543.67
2023-03-15T04:38:11.636Z,99533.17
2023-03-15T04:39:25.887Z,99540.77
2023-03-15T04:40:46.447Z,99536.72
2023-03-15T04:41:51.917Z,99537.29
2023-03-15T04:44:17.205Z,99530.30
2023-03-15T04:45:25.726Z,99541.09
2023-03-15T04:46:35.253Z,99539.10
2023-03-15T04:47:44.321Z,99535.02
2023-03-15T04:49:07.973Z,99532.15
2023-03-15T04:50:12.953Z,99530.19
2023-03-15T04:51:26.126Z,99531.03
2023-03-15T04:52:31.666Z,99535.12
2023-03-15T04:53:53.662Z,99545.45
2023-03-15T04:55:04.579Z,99562.37
2023-03-15T04:56:10.530Z,99557.79
2023-03-15T04:57:17.859Z,99566.16
2023-03-15T04:58:25.669Z,99582.05
2023-03-15T04:59:42.832Z,99575.22
2023-03-15T05:01:04.531Z,99571.68
2023-03-15T05:02:26.276Z,99568.10
2023-03-15T05:03:40.765Z,99579.78
2023-03-15T05:04:57.244Z,99582.32
2023-03-15T05:06:19.725Z,99575.59
2023-03-15T05:07:41.626Z,99579.09
2023-03-15T05:08:55.901Z,99581.72
2023-03-15T05:10:02.004Z,99573.27
2023-03-15T05:11:24.940Z,99565.83
2023-03-15T05:12:33.638Z,99561.70
2023-03-15T05:13:51.570Z,99561.50
2023-03-15T05:15:02.922Z,99569.84
2023-03-15T05:16:11.157Z,99564.35
2023-03-15T05:17:25.921Z,99565.04
2023-03-15T05:18:37.988Z,99566.63
2023-03-15T05:19:45.774Z,99562.81
2023-03-15T05:21:08.492Z,99561.64
2023-03-15T05:22:20.037Z,99569.59
2023-03-15T05:23:25.738Z,99574.52
2023-03-15T05:24:34.704Z,99577.58
2023-03-15T05:25:55.830Z,99590.67
2023-03-15T05:27:18.136Z,99585.95
2023-03-15T05:28:23.136Z,99587.00
2023-03-15T05:29:28.699Z,99585.03
2023-03-15T05:30:36.814Z,99577.05
2023-03-15T05:31:42.122Z,99581.70
2023-03-15T05:33:07.205Z,99578.28
2023-03-15T05:34:28.918Z,99572.66
2023-03-15T05:35:46.220Z,99567.94
2023-03-15T05:37:00.225Z,99569.90
2023-03-15T05:38:17.353Z,99564.38
2023-03-15T05:39:28.652Z,99554.27
2023-03-15T05:40:48.973Z,99555.12
2023-03-15T05:42:12.207Z,99548.74
2023-03-15T05:43:29.615Z,99545.33
2023-03-15T05:44:34.884Z,99552.39
2023-03-15T05:45:39.168Z,99559.05
2023-03-15T05:46:47.963Z,99554.94
2023-03-15T05:47:53.339Z,99561.17
2023-03-15T05:49:06.139Z,99564.24
2023-03-15T05:50:19.177Z,99563.39
2023-03-15T05:51:25.264Z,99563.98
2023-03-15T05:52:39.040Z,99562.41
2023-03-15T05:53:47.548Z,99574.16
2023-03-15T05:55:02.842Z,99573.77
2023-03-15T05:56:14.705Z,99580.16
2023-03-15T05:57:37.816Z,99580.92
2023-03-15T05:59:01.206Z,99591.23
2023-03-15T06:00:07.594Z,99583.77
2023-03-15T06:01:22.111Z,99585.38
2023-03-15T06:02:43.936Z,99577.14
2023-03-15T06:04:06.817Z,99585.46
2023-03-15T06:05:14.195Z,99581.30
2023-03-15T06:06:17.690Z,99583.91
2023-03-15T06:07:20.770Z,99586.95
2023-03-15T06:08:24.588Z,99592.78
2023-03-15T06:09:28.020Z,99586.94
2023-03-15T06:10:32.748Z,99593.14
2023-03-15T06:11:37.930Z,99600.24
2023-03-15T06:12:41.312Z,99594.20
2023-03-15T06:14:52.200Z,99584.09
2023-03-15T06:15:56.854Z,99578.31
2023-03-15T06:17:03.369Z,99570.76
2023-03-15T06:18:07.310Z,99570.59
2023-03-15T06:19:10.572Z,99576.48
2023-03-15T06:20:16.606Z,99580.72
2023-03-15T06:21:21.794Z,99578.56
2023-03-15T06:22:25.120Z,99581.36
2023-03-15T06:23:29.425Z,99571.30
2023-03-15T06:24:33.039Z,99580.56
2023-03-15T06:25:36.652Z,99590.81
2023-03-15T06:26:39.476Z,99587.77
2023-03-15T06:27:43.033Z,99586.97
2023-03-15T06:28:45.596Z,99577.19
2023-03-15T06:29:50.790Z,99563.53
2023-03-15T06:30:54.404Z,99564.30
2023-03-15T06:31:59.860Z,99563.39
2023-03-15T06:33:03.744Z,99565.19
2023-03-15T06:34:07.404Z,99563.52
2023-03-15T06:35:10.587Z,99551.70
2023-03-15T06:36:15.040Z,99543.04
2023-03-15T06:37:29.149Z,99552.08
2023-03-15T06:38:26.650Z,99529.80
2023-03-15T06:39:29.320Z,99527.86
2023-03-15T06:40:32.712Z,99531.97
2023-03-15T06:41:37.776Z,99538.05
2023-03-15T06:42:43.066Z,99538.86
2023-03-15T06:43:47.986Z,99545.31
2023-03-15T06:44:56.504Z,99540.70
2023-03-15T06:46:00.641Z,99537.83
2023-03-15T06:47:04.198Z,99533.63
2023-03-15T06:48:06.639Z,99533.59
2023-03-15T06:49:10.263Z,99527.26
2023-03-15T06:50:18.383Z,99539.81
2023-03-15T06:51:21.544Z,99542.35
2023-03-15T06:52:24.113Z,99549.61
2023-03-15T06:53:26.992Z,99554.27
2023-03-15T06:54:31.021Z,99561.51
2023-03-15T06:55:34.842Z,99561.65
2023-03-15T06:56:43.234Z,99570.62
2023-03-15T06:57:46.567Z,99562.97
2023-03-15T06:58:50.160Z,99560.95
2023-03-15T06:59:55.489Z,99565.84
2023-03-15T07:00:59.884Z,99581.44
2023-03-15T07:02:03.798Z,99586.09
2023-03-15T07:03:07.314Z,99592.34
2023-03-15T07:04:10.081Z,99603.66
2023-03-15T07:05:17.351Z,99614.38
2023-03-15T07:06:22.454Z,99617.86
2023-03-15T07:07:28.791Z,99615.97
2023-03-15T07:08:32.064Z,99618.59
2023-03-15T07:09:36.311Z,99621.80
2023-03-15T07:10:40.221Z,99627.55
2023-03-15T07:11:43.721Z,99637.94
2023-03-15T07:12:47.820Z,99631.64
2023-03-15T07:13:52.891Z,99639.21
2023-03-15T07:14:56.856Z,99640.70
2023-03-15T07:16:00.172Z,99650.72
2023-03-15T07:17:04.161Z,99642.74
2023-03-15T07:18:10.117Z,99647.79
2023-03-15T07:19:18.761Z,99647.15
2023-03-15T07:20:21.980Z,99647.98
2023-03-15T07:21:26.636Z,99650.52
2023-03-15T07:22:30.008Z,99653.02
2023-03-15T07:23:33.121Z,99653.42
2023-03-15T07:24:36.532Z,99650.47
2023-03-15T07:25:54.174Z,99648.62
2023-03-15T07:26:43.859Z,99642.16
2023-03-15T07:27:47.467Z,99648.16
2023-03-15T07:28:50.125Z,99647.78
2023-03-15T07:29:55.833Z,99647.12
2023-03-15T07:31:01.323Z,99645.91
2023-03-15T07:32:04.782Z,99651.98
2023-03-15T07:33:08.191Z,99651.07
2023-03-15T07:34:10.896Z,99648.56
2023-03-15T07:35:14.348Z,99647.09
2023-03-15T07:36:20.728Z,99654.50
2023-03-15T07:37:24.023Z,99662.12
2023-03-15T07:38:31.328Z,99653.25
2023-03-15T07:39:34.791Z,99655.45
2023-03-15T07:40:38.077Z,99650.91
2023-03-15T07:41:41.387Z,99647.23
2023-03-15T07:42:46.874Z,99651.49
2023-03-15T07:43:50.899Z,99650.59
2023-03-15T07:44:55.541Z,99636.99
2023-03-15T07:45:59.370Z,99646.22
2023-03-15T07:47:02.876Z,99646.68
2023-03-15T07:48:06.483Z,99641.52
2023-03-15T07:49:12.810Z,99650.59
2023-03-15T07:50:17.979Z,99648.02
2023-03-15T07:51:23.073Z,99658.98
2023-03-15T07:52:25.612Z,99655.55
2023-03-15T07:53:29.030Z,99656.93
2023-03-15T07:54:33.365Z,99656.80
2023-03-15T07:55:36.856Z,99658.46
2023-03-15T07:56:41.204Z,99660.52
2023-03-15T07:57:44.719Z,99659.94
2023-03-15T07:58:47.894Z,99667.70
2023-03-15T07:59:53.401Z,99657.38
2023-03-15T08:00:56.992Z,99662.72
2023-03-15T08:02:03.173Z,99664.81
2023-03-15T08:03:06.953Z,99656.80
2023-03-15T08:04:10.339Z,99665.87
2023-03-15T08:05:15.096Z,99664.23
2023-03-15T08:06:19.649Z,99657.29
2023-03-15T08:07:22.930Z,99664.63
2023-03-15T08:08:27.073Z,99671.01
2023-03-15T08:09:30.369Z,99657.05
2023-03-15T08:10:34.189Z,99650.28
2023-03-15T08:11:38.123Z,99648.73
2023-03-15T08:12:44.612Z,99645.22
2023-03-15T08:13:47.930Z,99649.82
2023-03-15T08:14:50.883Z,99639.88
2023-03-15T08:15:54.393Z,99639.79
2023-03-15T08:16:57.832Z,99637.48
2023-03-15T08:18:05.235Z,99636.93
2023-03-15T08:19:09.957Z,99630.23
2023-03-15T08:20:14.286Z,99639.16
2023-03-15T08:21:19.580Z,99644.05
2023-03-15T08:22:25.681Z,99628.38
2023-03-15T08:23:28.876Z,99634.62
2023-03-15T08:24:34.419Z,99637.55
2023-03-15T08:25:38.612Z,99640.70
2023-03-15T08:26:44.118Z,99639.82
2023-03-15T08:27:47.490Z,99635.48
2023-03-15T08:28:50.724Z,99629.45
2023-03-15T08:29:53.428Z,99635.75
2023-03-15T08:30:56.972Z,99629.32
2023-03-15T08:32:01.561Z,99629.89
2023-03-15T08:33:04.638Z,99635.03
2023-03-15T08:34:07.069Z,99624.77
2023-03-15T08:35:10.644Z,99618.81
2023-03-15T08:36:13.404Z,99624.43
2023-03-15T08:37:16.883Z,99611.72
2023-03-15T08:38:20.466Z,99613.42
2023-03-15T08:39:26.462Z,99610.75
2023-03-15T08:40:30.442Z,99618.28
2023-03-15T08:41:33.159Z,99620.83
2023-03-15T08:42:37.838Z,99610.88
2023-03-15T08:43:41.326Z,99614.41
2023-03-15T08:44:45.473Z,99606.31
2023-03-15T08:46:00.716Z,99610.76
2023-03-15T08:46:57.462Z,99612.67
2023-03-15T08:48:03.079Z,99603.69
2023-03-15T08:49:08.568Z,99609.51
2023-03-15T08:50:14.777Z,99603.38
2023-03-15T08:51:18.291Z,99601.37
2023-03-15T08:52:22.216Z,99601.22
2023-03-15T08:53:26.393Z,99614.95
2023-03-15T08:54:30.894Z,99608.18
2023-03-15T08:55:35.433Z,99609.60
2023-03-15T08:56:39.460Z,99602.15
2023-03-15T08:57:43.162Z,99606.01
2023-03-15T08:58:47.284Z,99597.47
2023-03-15T08:59:51.897Z,99592.98
2023-03-15T09:00:56.454Z,99588.55
2023-03-15T09:02:02.000Z,99598.13
2023-03-15T09:03:07.288Z,99603.12
2023-03-15T09:04:11.872Z,99594.19
2023-03-15T09:05:15.978Z,99590.96
2023-03-15T09:06:20.029Z,99595.64
2023-03-15T09:07:24.860Z,99592.95
2023-03-15T09:08:27.422Z,99583.59
2023-03-15T09:09:30.530Z,99588.40
2023-03-15T09:10:34.444Z,99584.91
2023-03-15T09:11:38.919Z,99581.25
2023-03-15T09:12:42.060Z,99566.66
2023-03-15T09:13:45.319Z,99569.52
2023-03-15T09:14:48.871Z,99564.81
2023-03-15T09:15:54.048Z,99552.58
2023-03-15T09:16:57.178Z,99552.52
2023-03-15T09:17:59.696Z,99549.45
2023-03-15T09:19:02.741Z,99549.91
2023-03-15T09:20:09.651Z,99551.33
2023-03-15T09:21:12.874Z,99540.77
2023-03-15T09:22:17.251Z,99540.39
2023-03-15T09:23:24.010Z,99544.02
2023-03-15T09:24:27.523Z,99537.70
2023-03-15T09:25:31.444Z,99540.94
2023-03-15T09:26:36.611Z,99542.07
2023-03-15T09:27:39.916Z,99534.20
2023-03-15T09:28:43.307Z,99536.51
2023-03-15T09:29:47.665Z,99532.20
2023-03-15T09:30:51.394Z,99529.13
2023-03-15T09:31:55.829Z,99538.69
2023-03-15T09:32:58.227Z,99535.42
2023-03-15T09:34:01.652Z,99550.38
2023-03-15T09:35:06.018Z,99546.37
2023-03-15T09:36:10.476Z,99545.04
2023-03-15T09:37:14.298Z,99546.78
2023-03-15T09:38:17.372Z,99545.27
2023-03-15T09:39:22.737Z,99549.22
2023-03-15T09:40:30.868Z,99544.27
2023-03-15T09:41:35.504Z,99549.66
2023-03-15T09:42:49.556Z,99539.04
2023-03-15T09:43:57.448Z,99536.35
2023-03-15T09:45:22.741Z,99534.27
2023-03-15T09:46:28.212Z,99530.70
2023-03-15T09:47:37.434Z,99520.48
2023-03-15T09:48:57.635Z,99522.67
2023-03-15T09:50:05.745Z,99520.74
2023-03-15T09:51:27.636Z,99510.41
2023-03-15T09:52:37.938Z,99514.97
2023-03-15T09:53:43.323Z,99517.33
2023-03-15T09:54:57.831Z,99517.15
2023-03-15T09:56:00.147Z,99516.05
2023-03-15T09:57:09.604Z,99511.48
2023-03-15T09:58:16.065Z,99517.44
2023-03-15T09:59:21.364Z,99516.59
2023-03-15T10:00:37.450Z,99523.58
2023-03-15T10:01:43.848Z,99511.98
2023-03-15T10:02:56.105Z,99517.47
2023-03-15T10:04:02.581Z,99511.61
2023-03-15T10:05:10.799Z,99510.05
2023-03-15T10:06:36.373Z,99513.13
2023-03-15T10:07:40.267Z,99509.92
2023-03-15T10:08:52.232Z,99513.11
2023-03-15T10:09:59.483Z,99506.95
2023-03-15T10:11:13.260Z,99499.58
2023-03-15T10:12:18.105Z,99510.77
2023-03-15T10:13:27.233Z,99505.00
2023-03-15T10:14:49.229Z,99508.03
2023-03-15T10:16:03.469Z,99511.11
2023-03-15T10:17:12.593Z,99496.26
2023-03-15T10:18:29.519Z,99490.44
2023-03-15T10:19:34.169Z,99497.66
2023-03-15T10:20:39.338Z,99489.30
2023-03-15T10:21:47.763Z,99487.91
2023-03-15T10:22:58.787Z,99490.08
2023-03-15T10:24:05.294Z,99490.48
2023-03-15T10:25:17.729Z,99491.55
2023-03-15T10:26:25.278Z,99486.14
2023-03-15T10:27:32.444Z,99484.95
2023-03-15T10:28:37.320Z,99483.06
2023-03-15T10:29:41.031Z,99487.07
2023-03-15T10:30:49.389Z,99488.00
2023-03-15T10:31:55.982Z,99495.80
2023-03-15T10:33:00.606Z,99484.96
2023-03-15T10:34:04.856Z,99496.33
2023-03-15T10:35:15.801Z,99489.42
2023-03-15T10:36:19.815Z,99488.19
2023-03-15T10:37:24.764Z,99491.84
2023-03-15T10:38:27.802Z,99496.20
2023-03-15T10:39:31.353Z,99500.56
2023-03-15T10:40:48.757Z,99489.18
2023-03-15T10:41:51.730Z,99496.53
2023-03-15T10:42:59.766Z,99494.52
2023-03-15T10:44:09.670Z,99490.27
2023-03-15T10:45:15.443Z,99491.57
2023-03-15T10:46:23.168Z,99488.80
2023-03-15T10:47:27.563Z,99489.36
2023-03-15T10:48:36.611Z,99486.55
2023-03-15T10:49:42.801Z,99477.66
2023-03-15T10:50:45.471Z,99482.41
2023-03-15T10:51:49.395Z,99482.92
2023-03-15T10:52:54.885Z,99488.83
2023-03-15T10:54:17.387Z,99491.37
2023-03-15T10:55:22.473Z,99479.45
2023-03-15T10:56:30.053Z,99485.48
2023-03-15T10:57:35.654Z,99489.95
2023-03-15T10:58:45.144Z,99489.53
2023-03-15T10:59:55.760Z,99491.75
2023-03-15T11:01:03.252Z,99482.56
2023-03-15T11:02:13.478Z,99486.55
2023-03-15T11:03:20.314Z,99490.80
2023-03-15T11:04:28.210Z,99484.05
2023-03-15T11:05:39.961Z,99484.33
2023-03-15T11:06:50.749Z,99478.43
2023-03-15T11:07:55.352Z,99477.34
2023-03-15T11:09:01.688Z,99478.17
2023-03-15T11:10:07.504Z,99474.95
2023-03-15T11:11:11.172Z,99472.57
2023-03-15T11:12:19.619Z,99475.36
2023-03-15T11:13:23.411Z,99468.17
2023-03-15T11:14:37.559Z,99469.41
2023-03-15T11:16:45.834Z,99458.80
2023-03-15T11:17:49.239Z,99462.05
2023-03-15T11:18:53.583Z,99454.08
2023-03-15T11:20:00.635Z,99466.63
2023-03-15T11:21:08.616Z,99457.46
2023-03-15T11:22:13.323Z,99456.20
2023-03-15T11:23:19.021Z,99453.95
2023-03-15T11:24:28.485Z,99457.00
2023-03-15T11:25:33.651Z,99456.34
2023-03-15T11:26:38.900Z,99455.77
2023-03-15T11:27:43.846Z,99449.45
2023-03-15T11:28:48.517Z,99457.66
2023-03-15T11:29:54.054Z,99453.42
2023-03-15T11:31:01.079Z,99448.78
2023-03-15T11:32:07.487Z,99449.59
2023-03-15T11:33:14.268Z,99445.69
2023-03-15T11:34:35.214Z,99437.73
2023-03-15T11:35:44.964Z,99446.93
2023-03-15T11:36:58.717Z,99450.07
2023-03-15T11:38:14.692Z,99451.58
2023-03-15T11:39:08.840Z,99449.58
2023-03-15T11:40:16.127Z,99461.34
2023-03-15T11:41:29.736Z,99460.36
2023-03-15T11:42:35.090Z,99456.00
2023-03-15T11:43:43.751Z,99457.22
2023-03-15T11:44:51.581Z,99450.33
2023-03-15T11:45:56.676Z,99451.34
2023-03-15T11:47:05.673Z,99451.06
2023-03-15T11:48:10.827Z,99443.72
2023-03-15T11:49:15.589Z,99447.71
2023-03-15T11:50:18.673Z,99439.98
2023-03-15T11:51:22.287Z,99438.16
2023-03-15T11:52:27.149Z,99443.08
2023-03-15T11:53:33.573Z,99438.59
2023-03-15T11:54:37.188Z,99436.84
2023-03-15T11:55:42.716Z,99438.91
2023-03-15T11:56:58.186Z,99442.19
2023-03-15T11:58:02.740Z,99431.64
2023-03-15T11:59:08.658Z,99437.03
2023-03-15T12:00:29.376Z,99429.98
2023-03-15T12:01:35.263Z,99440.12
2023-03-15T12:02:40.435Z,99438.86
2023-03-15T12:03:44.533Z,99433.91
2023-03-15T12:04:48.219Z,99435.91
2023-03-15T12:05:52.338Z,99433.64
2023-03-15T12:06:58.362Z,99424.77
2023-03-15T12:08:03.737Z,99426.49
2023-03-15T12:09:25.212Z,99421.38
2023-03-15T12:10:33.722Z,99424.48
2023-03-15T12:11:39.424Z,99418.47
2023-03-15T12:12:44.079Z,99414.08
2023-03-15T12:14:00.436Z,99421.20
2023-03-15T12:15:16.906Z,99419.70
2023-03-15T12:16:22.841Z,99426.09
2023-03-15T12:17:27.033Z,99425.78
2023-03-15T12:18:36.347Z,99427.29
2023-03-15T12:19:41.042Z,99433.33
2023-03-15T12:20:52.590Z,99429.25
2023-03-15T12:21:59.852Z,99434.91
2023-03-15T12:23:14.327Z,99429.84
2023-03-15T12:24:24.724Z,99426.31
2023-03-15T12:25:37.246Z,99418.19
2023-03-15T12:26:47.095Z,99428.16
2023-03-15T12:27:52.373Z,99425.52
2023-03-15T12:29:04.019Z,99430.31
2023-03-15T12:30:09.113Z,99427.79
2023-03-15T12:31:16.393Z,99424.00
2023-03-15T12:32:21.703Z,99430.58
2023-03-15T12:33:28.275Z,99428.19
2023-03-15T12:34:40.046Z,99424.55
2023-03-15T12:35:43.707Z,99423.69
2023-03-15T12:36:48.962Z,99422.99
2023-03-15T12:37:54.516Z,99418.36
2023-03-15T12:39:05.670Z,99422.89
2023-03-15T12:40:20.726Z,99417.39
2023-03-15T12:41:37.971Z,99418.09
2023-03-15T12:42:42.986Z,99409.68
2023-03-15T12:43:47.982Z,99409.06
2023-03-15T12:44:51.993Z,99414.57
2023-03-15T12:45:56.336Z,99414.12
2023-03-15T12:47:02.439Z,99405.65
2023-03-15T12:48:13.567Z,99411.13
2023-03-15T12:49:19.480Z,99411.55
2023-03-15T12:50:44.660Z,99412.81
2023-03-15T12:52:00.872Z,99415.41
2023-03-15T12:53:06.739Z,99409.52
2023-03-15T12:54:14.031Z,99409.77
2023-03-15T12:55:19.207Z,99409.73
2023-03-15T12:56:32.218Z,99410.29
2023-03-15T12:57:40.215Z,99402.04
2023-03-15T12:58:47.895Z,99399.66
2023-03-15T12:59:59.131Z,99408.47
2023-03-15T13:01:04.979Z,99411.73
2023-03-15T13:02:10.427Z,99404.73
2023-03-15T13:03:18.985Z,99414.57
2023-03-15T13:04:21.600Z,99412.60
2023-03-15T13:05:27.832Z,99411.92
2023-03-15T13:06:33.413Z,99412.42
2023-03-15T13:07:50.601Z,99412.16
2023-03-15T13:08:46.588Z,99406.98
2023-03-15T13:09:53.798Z,99402.09
2023-03-15T13:10:59.249Z,99411.72
2023-03-15T13:12:05.176Z,99406.11
2023-03-15T13:13:11.714Z,99408.38
2023-03-15T13:14:16.869Z,99415.94
2023-03-15T13:15:21.729Z,99416.02
2023-03-15T13:16:45.197Z,99408.86
2023-03-15T13:17:52.033Z,99413.53
2023-03-15T13:19:04.092Z,99412.56
2023-03-15T13:20:15.116Z,99412.02
2023-03-15T13:21:38.539Z,99412.69
2023-03-15T13:22:55.561Z,99416.63
2023-03-15T13:23:56.207Z,99415.94
2023-03-15T13:25:01.421Z,99420.98
2023-03-15T13:26:16.530Z,99418.70
2023-03-15T13:27:34.125Z,99415.82
2023-03-15T13:28:42.803Z,99414.61
2023-03-15T13:29:46.567Z,99412.58
2023-03-15T13:30:54.595Z,99410.33
2023-03-15T13:32:18.108Z,99416.42
2023-03-15T13:33:33.558Z,99410.22
2023-03-15T13:34:36.037Z,99419.73